フィレンツェ の空港の天気 - METARとTAF

フィレンツェ・ペレトラ空港 ( LIRQ / FLR ) - イタリア フィレンツェ
飛行場実況気象(Metar)
観測時間04/19 18:50 CEST (04/19 16:50 UTC)
風向・風速北北東 6m/s
視程10km以上
天気現象
なし
気温23℃
湿度41%
気圧1024hPa
METARLIRQ 191650Z 02012KT CAVOK 23/09 Q1024
過去の天気等 Google飛行場航空写真 Wunderground天気予報

過去48時間のMETAR

飛行場予報(TAF)
発表時間: 4/19 13:00 CEST (4/19 11:00 UTC)
予報対象時間: 19日14時 CEST ~ 20日14時 CEST
風向・風速北北東 6m/s
視程10km以上
なし
19日18時 CEST ~ 19日20時 CEST に徐々に
風向・風速不定 3m/s
TAF LIRQ 191100Z 1912/2012 02012KT CAVOK
BECMG 1916/1918 VRB05KT